Time;durP1;ratioP1;P1;durP2;ratioP2;P2;SDS_P1;SDS_P2;PMS_P1;PMS_P2;Temp;Humidity;BMP_temperature;BMP_pressure;BME280_temperature;BME280_humidity;BME280_pressure;Samples;Min_cycle;Max_cycle;Signal;HPM_P1;HPM_P2
2022/05/01 00:02:12;;;;;;;6.25;4.20;;;8.80;99.90;;;;;;5016949;28;20034;-77
2022/05/01 00:04:37;;;;;;;5.68;3.53;;;8.70;99.90;;;;;;5016901;28;20646;-77
2022/05/01 00:07:04;;;;;;;7.35;4.18;;;8.70;99.90;;;;;;5018046;28;20031;-76
2022/05/01 00:09:29;;;;;;;9.30;5.97;;;8.70;99.90;;;;;;5017753;28;20038;-76
2022/05/01 00:11:55;;;;;;;9.52;4.93;;;8.70;99.90;;;;;;5016007;28;20389;-76
2022/05/01 00:14:21;;;;;;;7.13;4.95;;;8.70;99.90;;;;;;5012927;28;20036;-76
2022/05/01 00:16:48;;;;;;;6.40;4.53;;;8.70;99.90;;;;;;5015578;28;20037;-76
2022/05/01 00:19:13;;;;;;;6.28;5.15;;;8.70;99.90;;;;;;5017750;28;20068;-76
2022/05/01 00:21:40;;;;;;;5.30;3.95;;;8.70;99.90;;;;;;5017106;28;20037;-77
2022/05/01 00:24:06;;;;;;;3.78;3.08;;;8.70;99.90;;;;;;5017701;28;20313;-77
2022/05/01 00:26:32;;;;;;;4.35;3.03;;;8.70;99.90;;;;;;5015716;28;20040;-76
2022/05/01 00:29:00;;;;;;;4.97;3.78;;;8.60;99.90;;;;;;5017620;28;20048;-76
2022/05/01 00:31:26;;;;;;;4.15;2.78;;;8.60;99.90;;;;;;5015249;28;20034;-76
2022/05/01 00:36:36;;;;;;;6.28;5.65;;;8.60;99.90;;;;;;5018113;28;20094;-76
2022/05/01 00:39:05;;;;;;;7.72;5.30;;;8.60;99.90;;;;;;5019328;28;20034;-76
2022/05/01 00:41:34;;;;;;;10.43;6.45;;;8.60;99.90;;;;;;5020295;28;20022;-76
2022/05/01 00:44:08;;;;;;;8.27;6.25;;;8.60;99.90;;;;;;5012356;28;20041;-76
2022/05/01 00:46:48;;;;;;;6.82;5.35;;;8.60;99.90;;;;;;5012897;28;20029;-76
2022/05/01 00:49:22;;;;;;;8.90;5.90;;;8.60;99.90;;;;;;5018901;28;20087;-76
2022/05/01 00:51:53;;;;;;;7.43;5.20;;;8.60;99.90;;;;;;5017882;28;20044;-76
2022/05/01 00:54:24;;;;;;;5.85;4.70;;;8.60;99.90;;;;;;5020759;28;20025;-76
2022/05/01 00:56:52;;;;;;;6.10;3.90;;;8.60;99.90;;;;;;4996522;28;20429;-76
2022/05/01 00:59:18;;;;;;;5.45;3.65;;;8.60;99.90;;;;;;5020443;28;20055;-76
2022/05/01 01:01:45;;;;;;;5.10;3.38;;;8.60;99.90;;;;;;5019091;28;20029;-76
2022/05/01 01:04:11;;;;;;;5.47;3.78;;;8.60;99.90;;;;;;5002628;28;20143;-76
2022/05/01 01:06:42;;;;;;;7.20;3.63;;;8.60;99.90;;;;;;5020791;28;20049;-76
2022/05/01 01:09:07;;;;;;;;;;;8.60;99.90;;;;;;5014277;28;21861;-76
2022/05/01 01:11:33;;;;;;;6.57;5.22;;;8.50;99.90;;;;;;5020964;28;19917;-77
2022/05/01 01:13:59;;;;;;;5.75;4.22;;;8.50;99.90;;;;;;5002409;28;20075;-76
2022/05/01 01:16:25;;;;;;;6.20;4.25;;;8.50;99.90;;;;;;5019867;28;20025;-76
2022/05/01 01:18:51;;;;;;;6.97;5.53;;;8.50;99.90;;;;;;5002619;28;20033;-76
2022/05/01 01:21:18;;;;;;;9.15;6.78;;;8.40;99.90;;;;;;5019895;28;20496;-76
2022/05/01 01:23:44;;;;;;;9.73;8.15;;;8.40;99.90;;;;;;5020668;28;20106;-77
2022/05/01 01:26:12;;;;;;;9.13;6.50;;;8.40;99.90;;;;;;5012575;28;20041;-76
2022/05/01 01:28:39;;;;;;;7.13;5.85;;;8.40;99.90;;;;;;5012457;28;20037;-77
2022/05/01 01:33:51;;;;;;;6.57;4.70;;;8.40;99.90;;;;;;5019824;28;20029;-76
2022/05/01 01:36:21;;;;;;;4.32;3.83;;;8.40;99.90;;;;;;5017771;28;20523;-76
2022/05/01 01:38:46;;;;;;;5.28;4.25;;;8.50;99.90;;;;;;5020516;28;20029;-76
2022/05/01 01:41:15;;;;;;;5.28;4.15;;;8.50;99.90;;;;;;5018140;28;20087;-76
2022/05/01 01:43:43;;;;;;;4.07;3.33;;;8.40;99.90;;;;;;5020093;28;20049;-76
2022/05/01 01:46:09;;;;;;;4.82;3.70;;;8.50;99.90;;;;;;5019259;28;20029;-76
2022/05/01 01:48:34;;;;;;;4.97;4.22;;;8.40;99.90;;;;;;5017847;28;20043;-76
2022/05/01 01:51:02;;;;;;;6.85;5.07;;;8.40;99.90;;;;;;5018710;28;20056;-76
2022/05/01 01:53:33;;;;;;;5.75;3.70;;;8.30;99.90;;;;;;5020057;28;20168;-76
2022/05/01 01:55:59;;;;;;;4.45;4.05;;;8.40;99.90;;;;;;5018349;28;20049;-76
2022/05/01 01:58:26;;;;;;;5.30;4.10;;;8.40;99.90;;;;;;5018994;28;20036;-76
2022/05/01 02:00:52;;;;;;;7.25;4.50;;;8.40;99.90;;;;;;5020259;28;21972;-76
2022/05/01 02:03:18;;;;;;;6.13;4.63;;;8.40;99.90;;;;;;5019787;28;20492;-76
2022/05/01 02:05:44;;;;;;;5.40;3.83;;;8.30;99.90;;;;;;5017273;28;20393;-76
2022/05/01 02:08:10;;;;;;;4.47;3.53;;;8.30;99.90;;;;;;5001863;28;20032;-76
2022/05/01 02:10:36;;;;;;;4.93;4.00;;;8.20;99.90;;;;;;5019043;28;20136;-76
2022/05/01 02:13:03;;;;;;;5.85;3.90;;;8.20;99.90;;;;;;5020025;28;20121;-76
2022/05/01 02:15:32;;;;;;;5.80;4.25;;;8.10;99.90;;;;;;5017137;28;20532;-76
2022/05/01 02:17:59;;;;;;;5.83;4.43;;;8.10;99.90;;;;;;5019848;28;20040;-76
2022/05/01 02:20:26;;;;;;;5.35;4.47;;;8.10;99.90;;;;;;5019371;28;20288;-76
2022/05/01 02:22:55;;;;;;;6.22;4.20;;;8.20;99.90;;;;;;5017306;28;20038;-76
2022/05/01 02:25:23;;;;;;;6.20;4.35;;;8.20;99.90;;;;;;5017934;28;20025;-76
2022/05/01 02:27:49;;;;;;;4.90;3.83;;;8.20;99.90;;;;;;5018738;28;20115;-77
2022/05/01 02:30:16;;;;;;;6.43;4.53;;;8.20;99.90;;;;;;5019391;28;20084;-77
2022/05/01 02:32:42;;;;;;;5.95;4.15;;;8.00;99.90;;;;;;5019236;28;20083;-76
2022/05/01 02:35:09;;;;;;;6.22;4.85;;;8.00;99.90;;;;;;5018878;28;20025;-76
2022/05/01 02:37:35;;;;;;;6.82;5.75;;;8.10;99.90;;;;;;5018642;28;21957;-76
2022/05/01 02:40:01;;;;;;;7.82;5.13;;;8.10;99.90;;;;;;5011105;28;20047;-76
2022/05/01 02:42:27;;;;;;;8.02;4.88;;;8.00;99.90;;;;;;5017949;28;20510;-76
2022/05/01 02:44:52;;;;;;;6.07;5.10;;;8.00;99.90;;;;;;5018387;28;20029;-76
2022/05/01 02:47:18;;;;;;;6.18;4.40;;;8.10;99.90;;;;;;5001249;28;20033;-76
2022/05/01 02:49:43;;;;;;;4.75;4.20;;;8.10;99.90;;;;;;5018612;28;20436;-76
2022/05/01 02:52:09;;;;;;;4.25;3.75;;;8.10;99.90;;;;;;5018936;28;20034;-76
2022/05/01 02:54:35;;;;;;;4.63;4.05;;;8.10;99.90;;;;;;5018824;28;20106;-76
2022/05/01 02:57:02;;;;;;;5.93;5.25;;;8.00;99.90;;;;;;5017831;28;20045;-76
2022/05/01 02:59:27;;;;;;;6.70;5.43;;;8.00;99.90;;;;;;5018740;28;20504;-76
2022/05/01 03:01:55;;;;;;;6.22;4.63;;;8.00;99.90;;;;;;5013003;28;20037;-76
2022/05/01 03:04:21;;;;;;;8.10;5.25;;;7.90;99.90;;;;;;5018390;28;20576;-76
2022/05/01 03:06:47;;;;;;;6.35;5.15;;;8.00;99.90;;;;;;5018499;28;20840;-76
2022/05/01 03:09:12;;;;;;;5.93;5.10;;;8.00;99.90;;;;;;5018254;28;20033;-76
2022/05/01 03:11:38;;;;;;;7.75;5.18;;;8.00;99.90;;;;;;5010400;28;20390;-76
2022/05/01 03:14:04;;;;;;;6.10;4.90;;;8.00;99.90;;;;;;5016729;28;20905;-76
2022/05/01 03:16:30;;;;;;;6.63;5.13;;;8.00;99.90;;;;;;5016330;28;20045;-77
2022/05/01 03:24:25;;;;;;;5.15;3.97;;;8.00;99.90;;;;;;5019435;28;20029;-76
2022/05/01 03:26:50;;;;;;;6.10;3.58;;;8.00;99.90;;;;;;5017494;28;20076;-76
2022/05/01 03:29:17;;;;;;;8.05;5.63;;;8.00;99.90;;;;;;5017080;28;20033;-76
2022/05/01 03:31:45;;;;;;;7.40;5.60;;;8.00;99.90;;;;;;5017707;28;20030;-76
2022/05/01 03:34:11;;;;;;;10.27;6.25;;;8.00;99.90;;;;;;5016109;28;20041;-76
2022/05/01 03:36:37;;;;;;;7.72;5.68;;;8.00;99.90;;;;;;5017196;28;20025;-76
2022/05/01 03:39:05;;;;;;;8.07;5.90;;;7.90;99.90;;;;;;5015673;28;20492;-76
2022/05/01 03:41:31;;;;;;;6.82;5.53;;;7.90;99.90;;;;;;5017708;28;20058;-76
2022/05/01 03:43:56;;;;;;;8.13;5.65;;;7.90;99.90;;;;;;5018392;28;20045;-76
2022/05/01 03:46:23;;;;;;;8.52;7.03;;;7.90;99.90;;;;;;5016055;28;20037;-76
2022/05/01 03:48:50;;;;;;;8.00;6.35;;;7.90;99.90;;;;;;5017394;28;20033;-76
2022/05/01 03:51:16;;;;;;;7.28;6.07;;;7.80;99.90;;;;;;5018335;28;20052;-76
2022/05/01 03:53:42;;;;;;;7.43;5.53;;;7.90;99.90;;;;;;5018333;28;20030;-76
2022/05/01 03:56:08;;;;;;;5.97;5.38;;;7.90;99.90;;;;;;5017320;28;20057;-76
2022/05/01 03:58:34;;;;;;;6.47;4.97;;;7.90;99.90;;;;;;5015903;28;20053;-76
2022/05/01 04:00:59;;;;;;;5.55;4.85;;;7.90;99.90;;;;;;5016623;28;20275;-76
2022/05/01 04:03:25;;;;;;;7.57;5.90;;;7.90;99.90;;;;;;5019132;28;20026;-76
2022/05/01 04:05:52;;;;;;;8.73;5.55;;;7.90;99.90;;;;;;5017978;28;20076;-76
2022/05/01 04:08:17;;;;;;;6.63;5.63;;;7.90;99.90;;;;;;5015210;28;20033;-76
2022/05/01 04:10:44;;;;;;;6.28;5.53;;;7.90;99.90;;;;;;5002522;28;20072;-76
2022/05/01 04:13:11;;;;;;;8.02;6.90;;;7.90;99.90;;;;;;5014584;28;20037;-76
2022/05/01 04:15:37;;;;;;;7.82;6.40;;;8.00;99.90;;;;;;5014495;28;20037;-76
2022/05/01 04:18:07;;;;;;;6.55;4.90;;;7.90;99.90;;;;;;5013761;28;20377;-76
2022/05/01 04:20:33;;;;;;;6.65;4.68;;;7.90;99.90;;;;;;5021535;28;20104;-76
2022/05/01 04:22:59;;;;;;;7.63;5.28;;;7.90;99.90;;;;;;5018671;28;20033;-76
2022/05/01 04:25:29;;;;;;;5.80;4.53;;;8.00;99.90;;;;;;5014092;28;20724;-76
2022/05/01 04:28:04;;;;;;;6.47;4.22;;;7.90;99.90;;;;;;5021630;28;20041;-76
2022/05/01 04:30:33;;;;;;;7.80;5.88;;;7.90;99.90;;;;;;5020883;28;20049;-76
2022/05/01 04:33:02;;;;;;;6.72;4.80;;;8.00;99.90;;;;;;5019536;28;20492;-76
2022/05/01 04:35:37;;;;;;;7.40;4.82;;;8.00;99.90;;;;;;5020051;28;20087;-76
2022/05/01 04:38:04;;;;;;;4.80;3.20;;;8.00;99.90;;;;;;5017890;28;20021;-76
2022/05/01 04:40:34;;;;;;;6.45;4.97;;;8.00;99.90;;;;;;5019037;28;20166;-76
2022/05/01 04:43:04;;;;;;;5.60;4.53;;;7.90;99.90;;;;;;5020359;28;20374;-76
2022/05/01 04:45:31;;;;;;;;;;;8.00;99.90;;;;;;5021419;28;20041;-76
2022/05/01 04:47:57;;;;;;;6.75;5.05;;;8.00;99.90;;;;;;5020839;28;20102;-77
2022/05/01 04:50:24;;;;;;;6.25;4.03;;;8.00;99.90;;;;;;5019593;28;20481;-76
2022/05/01 04:52:50;;;;;;;4.55;3.90;;;8.10;99.90;;;;;;5019928;28;20071;-76
2022/05/01 04:55:16;;;;;;;4.80;3.40;;;8.10;99.90;;;;;;5032901;28;20042;-76
2022/05/01 04:57:42;;;;;;;5.28;3.65;;;8.10;99.90;;;;;;5020432;28;20745;-77
2022/05/01 05:00:08;;;;;;;4.93;2.80;;;8.10;99.90;;;;;;5018784;28;20033;-76
2022/05/01 05:02:41;;;;;;;8.27;5.18;;;8.10;99.90;;;;;;5018951;28;20045;-76
2022/05/01 05:05:09;;;;;;;6.57;5.00;;;8.10;99.90;;;;;;5013528;28;20107;-77
2022/05/01 05:07:36;;;;;;;7.30;5.97;;;8.10;99.90;;;;;;5019679;28;20068;-76
2022/05/01 05:10:03;;;;;;;7.72;5.47;;;8.10;99.90;;;;;;5019342;28;20068;-76
2022/05/01 05:12:28;;;;;;;7.63;5.95;;;8.10;99.90;;;;;;5018997;28;20099;-76
2022/05/01 05:14:58;;;;;;;7.72;5.40;;;8.20;99.90;;;;;;5019860;28;20038;-77
2022/05/01 05:17:23;;;;;;;8.67;5.93;;;8.10;99.90;;;;;;5017666;28;20040;-76
2022/05/01 05:19:49;;;;;;;6.15;3.80;;;8.20;99.90;;;;;;5020304;28;20168;-76
2022/05/01 05:22:15;;;;;;;7.25;6.07;;;8.20;99.90;;;;;;5019439;28;20116;-76
2022/05/01 05:24:41;;;;;;;9.40;5.75;;;8.20;99.90;;;;;;5019387;28;20225;-76
2022/05/01 05:27:07;;;;;;;8.00;6.22;;;8.20;99.90;;;;;;5019501;28;20056;-76
2022/05/01 05:29:33;;;;;;;11.65;7.55;;;8.20;99.90;;;;;;5012231;28;20044;-76
2022/05/01 05:31:59;;;;;;;7.75;5.55;;;8.30;99.90;;;;;;5019673;28;20048;-76
2022/05/01 05:34:25;;;;;;;5.05;4.30;;;8.30;99.90;;;;;;5019802;28;21933;-76
2022/05/01 05:36:51;;;;;;;9.10;6.15;;;8.40;99.90;;;;;;5020050;28;20041;-76
2022/05/01 05:39:17;;;;;;;9.73;8.05;;;8.30;99.90;;;;;;5018205;28;20394;-76
2022/05/01 05:41:43;;;;;;;10.95;8.32;;;8.30;99.90;;;;;;5019157;28;20022;-76
2022/05/01 05:44:09;;;;;;;9.45;7.65;;;8.30;99.90;;;;;;5019336;28;20040;-76
2022/05/01 05:46:34;;;;;;;7.53;5.93;;;8.30;99.90;;;;;;5035868;28;20033;-76
2022/05/01 05:49:00;;;;;;;5.53;4.90;;;8.40;99.90;;;;;;5020244;28;20482;-76
2022/05/01 05:51:26;;;;;;;8.95;7.43;;;8.50;99.90;;;;;;5019006;28;20045;-76
2022/05/01 05:53:52;;;;;;;8.57;6.63;;;8.50;99.90;;;;;;5019428;28;20037;-76
2022/05/01 05:56:18;;;;;;;11.70;7.40;;;8.50;99.90;;;;;;5018519;28;20518;-76
2022/05/01 05:58:44;;;;;;;10.30;6.82;;;8.50;99.90;;;;;;5019242;28;20474;-76
2022/05/01 06:01:10;;;;;;;11.60;7.57;;;8.50;99.90;;;;;;5015226;28;20069;-76
2022/05/01 06:03:36;;;;;;;8.52;7.05;;;8.60;99.90;;;;;;5001622;28;20053;-76
2022/05/01 06:06:03;;;;;;;8.75;6.60;;;8.60;99.90;;;;;;5016676;28;20037;-77
2022/05/01 06:08:29;;;;;;;7.38;5.78;;;8.70;99.90;;;;;;5019419;28;20057;-76
2022/05/01 06:10:54;;;;;;;8.60;6.32;;;8.70;99.90;;;;;;5019131;28;20652;-74
2022/05/01 06:13:20;;;;;;;7.05;5.70;;;8.80;99.90;;;;;;5018998;28;20030;-76
2022/05/01 06:15:46;;;;;;;8.15;6.78;;;8.90;99.90;;;;;;5018422;28;20086;-76
2022/05/01 06:18:12;;;;;;;8.00;6.85;;;8.90;99.90;;;;;;5018942;28;20022;-77
2022/05/01 06:20:37;;;;;;;9.73;6.65;;;9.00;99.90;;;;;;5016599;28;20056;-76
2022/05/01 06:23:03;;;;;;;8.20;6.20;;;8.90;99.90;;;;;;5016252;28;20029;-77
2022/05/01 06:25:29;;;;;;;7.43;5.63;;;9.10;99.90;;;;;;5019389;28;20040;-76
2022/05/01 06:27:55;;;;;;;7.47;5.30;;;9.10;99.90;;;;;;5016302;28;20037;-76
2022/05/01 06:30:21;;;;;;;7.60;6.50;;;9.30;99.90;;;;;;5018189;28;20045;-77
2022/05/01 06:32:47;;;;;;;7.28;5.85;;;9.20;99.90;;;;;;5016985;28;20042;-77
2022/05/01 06:35:13;;;;;;;10.77;6.80;;;9.30;99.90;;;;;;5010666;28;20124;-75
2022/05/01 06:37:39;;;;;;;8.57;7.13;;;9.20;99.90;;;;;;5019246;28;20147;-75
2022/05/01 06:40:06;;;;;;;9.10;6.55;;;9.30;99.90;;;;;;4992539;28;20107;-75
2022/05/01 06:42:32;;;;;;;5.88;5.10;;;9.30;99.90;;;;;;5015025;28;20024;-74
2022/05/01 06:44:58;;;;;;;5.25;4.43;;;9.50;99.90;;;;;;5015876;28;20026;-77
2022/05/01 06:47:24;;;;;;;5.43;4.65;;;9.60;99.90;;;;;;5017248;28;20017;-78
2022/05/01 06:49:50;;;;;;;6.03;4.85;;;9.70;99.90;;;;;;5018000;28;20087;-78
2022/05/01 06:52:23;;;;;;;5.45;4.30;;;9.80;99.90;;;;;;5018832;28;20026;-78
2022/05/01 06:54:49;;;;;;;4.60;3.63;;;10.00;99.90;;;;;;5017954;28;20455;-77
2022/05/01 06:57:15;;;;;;;6.07;4.32;;;10.10;99.90;;;;;;5016502;28;20026;-77
2022/05/01 06:59:40;;;;;;;4.18;3.38;;;10.10;99.90;;;;;;5018532;28;20548;-77
2022/05/01 07:02:06;;;;;;;5.43;3.92;;;10.20;99.90;;;;;;5017972;28;20079;-77
2022/05/01 07:04:32;;;;;;;3.42;2.85;;;10.20;99.90;;;;;;5017795;28;20021;-78
2022/05/01 07:06:58;;;;;;;5.90;4.38;;;10.40;99.90;;;;;;5016881;28;20356;-77
2022/05/01 07:09:23;;;;;;;7.00;5.82;;;10.30;99.90;;;;;;5017604;28;20037;-77
2022/05/01 07:11:49;;;;;;;6.38;5.15;;;10.40;99.90;;;;;;5017579;28;20041;-77
2022/05/01 07:14:15;;;;;;;6.65;5.45;;;10.70;99.90;;;;;;5018099;28;20029;-76
2022/05/01 07:16:40;;;;;;;6.00;5.38;;;10.60;99.90;;;;;;5016088;28;20061;-77
2022/05/01 07:19:06;;;;;;;7.93;6.55;;;10.50;99.90;;;;;;5016979;28;20025;-77
2022/05/01 07:21:32;;;;;;;8.73;6.97;;;10.50;99.90;;;;;;5017811;28;20355;-77
2022/05/01 07:23:57;;;;;;;8.77;7.07;;;10.50;99.90;;;;;;5017639;28;20125;-77
2022/05/01 07:26:24;;;;;;;8.70;6.80;;;10.50;99.90;;;;;;5018200;28;20048;-77
2022/05/01 07:28:50;;;;;;;8.90;6.70;;;10.50;99.90;;;;;;5017693;28;20336;-77
2022/05/01 07:31:16;;;;;;;7.70;6.90;;;10.60;99.90;;;;;;5016514;28;20414;-77
2022/05/01 07:33:41;;;;;;;8.20;6.15;;;10.80;99.90;;;;;;5016911;28;20584;-77
2022/05/01 07:36:07;;;;;;;6.82;5.60;;;11.00;99.90;;;;;;5016827;28;20068;-77
2022/05/01 07:38:32;;;;;;;9.05;6.57;;;11.20;99.90;;;;;;5032429;28;20436;-77
2022/05/01 07:40:58;;;;;;;8.07;5.53;;;11.20;99.90;;;;;;5015974;28;20037;-77
2022/05/01 07:43:24;;;;;;;6.55;4.95;;;11.50;99.90;;;;;;5017173;28;20033;-77
2022/05/01 07:45:49;;;;;;;5.68;4.68;;;11.60;99.90;;;;;;5020181;28;20079;-77
2022/05/01 07:48:15;;;;;;;5.50;4.28;;;11.60;99.90;;;;;;5021123;28;20108;-77
2022/05/01 07:50:41;;;;;;;11.75;7.68;;;11.60;99.90;;;;;;5021674;28;20486;-77
2022/05/01 07:53:06;;;;;;;9.90;7.60;;;11.40;99.90;;;;;;5021500;28;20021;-77
2022/05/01 07:55:32;;;;;;;13.55;9.23;;;11.10;99.90;;;;;;5021492;28;20050;-77
2022/05/01 07:57:57;;;;;;;12.40;9.60;;;11.00;99.90;;;;;;5020667;28;20053;-77
2022/05/01 08:00:23;;;;;;;8.15;6.70;;;11.10;99.90;;;;;;5035519;28;20478;-77
2022/05/01 08:05:33;;;;;;;11.75;8.60;;;11.20;99.90;;;;;;5021882;28;20345;-77
2022/05/01 08:07:58;;;;;;;8.85;7.05;;;11.20;99.90;;;;;;5021301;28;20209;-77
2022/05/01 08:10:25;;;;;;;9.10;6.28;;;11.60;99.90;;;;;;5020065;28;20065;-77
2022/05/01 08:12:50;;;;;;;10.57;7.75;;;11.70;99.90;;;;;;5020856;28;20042;-78
2022/05/01 08:15:17;;;;;;;9.73;8.02;;;11.90;99.90;;;;;;5003678;28;20017;-76
2022/05/01 08:17:44;;;;;;;6.82;5.95;;;11.80;99.90;;;;;;5020594;28;20084;-75
2022/05/01 08:23:04;;;;;;;4.80;3.80;;;12.60;99.90;;;;;;5021113;28;21844;-77
2022/05/01 08:25:31;;;;;;;4.45;3.33;;;12.80;99.90;;;;;;4987838;28;20040;-75
2022/05/01 08:27:57;;;;;;;5.32;4.38;;;13.00;99.90;;;;;;5012462;28;20070;-76
2022/05/01 08:30:22;;;;;;;6.60;5.28;;;13.20;99.90;;;;;;5020489;28;20121;-76
2022/05/01 08:32:48;;;;;;;9.60;7.07;;;12.90;99.90;;;;;;5019208;28;20030;-76
2022/05/01 08:35:14;;;;;;;9.52;6.85;;;12.50;99.90;;;;;;5021208;28;20040;-76
2022/05/01 08:37:40;;;;;;;10.52;8.38;;;12.40;99.90;;;;;;5020079;28;20671;-76
2022/05/01 08:40:07;;;;;;;8.20;7.30;;;12.20;99.90;;;;;;5024724;28;20823;-77
2022/05/01 08:42:36;;;;;;;8.75;5.32;;;12.10;99.90;;;;;;5024910;28;20387;-78
2022/05/01 08:45:03;;;;;;;7.78;6.70;;;12.50;99.90;;;;;;5026903;28;20107;-76
2022/05/01 08:47:49;;;;;;;9.48;6.75;;;12.50;99.90;;;;;;5021512;28;20036;-76
2022/05/01 08:50:16;;;;;;;6.55;5.85;;;12.60;99.90;;;;;;5021233;28;20420;-76
2022/05/01 08:52:43;;;;;;;9.93;8.60;;;12.50;99.90;;;;;;5022753;28;20112;-76
2022/05/01 08:55:08;;;;;;;12.05;8.77;;;12.30;99.90;;;;;;5019802;28;20064;-76
2022/05/01 08:57:34;;;;;;;9.02;7.68;;;12.10;99.90;;;;;;5019568;28;20033;-76
2022/05/01 09:00:01;;;;;;;11.63;9.13;;;12.10;99.90;;;;;;5011366;28;20022;-76
2022/05/01 09:02:30;;;;;;;9.43;6.68;;;12.20;99.90;;;;;;5026742;28;20621;-76
2022/05/01 09:05:01;;;;;;;5.88;5.28;;;12.50;99.90;;;;;;5028515;28;20033;-76
2022/05/01 09:07:27;;;;;;;7.45;6.03;;;12.80;99.90;;;;;;5023306;28;20049;-75
2022/05/01 09:09:52;;;;;;;7.65;4.93;;;12.80;99.90;;;;;;5009907;28;20038;-76
2022/05/01 09:15:04;;;;;;;8.43;6.35;;;12.50;99.90;;;;;;5019599;28;20087;-76
2022/05/01 09:17:30;;;;;;;6.72;5.10;;;12.70;99.90;;;;;;5018022;28;20529;-76
2022/05/01 09:20:06;;;;;;;8.18;6.22;;;13.10;99.90;;;;;;5017177;28;20038;-76
2022/05/01 09:22:50;;;;;;;8.50;7.28;;;13.20;99.90;;;;;;5019857;28;20029;-76
2022/05/01 09:25:17;;;;;;;8.32;6.40;;;13.20;99.90;;;;;;5018867;28;20279;-76
2022/05/01 09:27:43;;;;;;;8.82;6.40;;;13.20;99.90;;;;;;5031241;28;20363;-76
2022/05/01 09:30:20;;;;;;;7.82;6.68;;;13.10;99.90;;;;;;5027924;28;21873;-76
2022/05/01 09:32:46;;;;;;;7.68;6.00;;;13.40;99.90;;;;;;5013311;28;20470;-76
2022/05/01 09:35:22;;;;;;;5.60;4.30;;;13.90;99.90;;;;;;5012357;28;20113;-76
2022/05/01 09:37:48;;;;;;;4.53;4.10;;;14.50;99.90;;;;;;5021721;28;20112;-76
2022/05/01 09:40:29;;;;;;;3.78;3.42;;;14.70;99.90;;;;;;5020350;28;20036;-75
2022/05/01 09:42:55;;;;;;;3.60;2.65;;;14.80;99.90;;;;;;5017670;28;20034;-78
2022/05/01 09:45:32;;;;;;;5.25;4.65;;;14.70;99.90;;;;;;5019574;28;20040;-76
2022/05/01 09:47:58;;;;;;;3.65;3.35;;;14.30;99.90;;;;;;5017222;28;20045;-77
2022/05/01 09:50:41;;;;;;;4.07;3.38;;;15.10;99.90;;;;;;5019081;28;20390;-76
2022/05/01 09:53:07;;;;;;;4.93;4.10;;;15.00;99.90;;;;;;5034285;28;20478;-77
2022/05/01 09:55:32;;;;;;;3.80;2.83;;;15.30;99.90;;;;;;5019676;28;20132;-77
2022/05/01 09:58:13;;;;;;;4.28;2.80;;;15.40;99.90;;;;;;5016570;28;20459;-76
2022/05/01 10:00:46;;;;;;;4.47;2.72;;;15.40;99.90;;;;;;5017928;28;20103;-76
2022/05/01 10:03:25;;;;;;;3.35;2.70;;;15.80;99.90;;;;;;5014868;28;20116;-76
2022/05/01 10:05:53;;;;;;;4.18;2.30;;;16.40;99.90;;;;;;5019081;28;20044;-76
2022/05/01 10:08:20;;;;;;;2.78;1.80;;;16.20;99.90;;;;;;5010097;28;20028;-76
2022/05/01 10:10:47;;;;;;;3.38;1.88;;;15.90;99.90;;;;;;5019338;28;20048;-76
2022/05/01 10:13:13;;;;;;;3.08;1.52;;;16.00;99.90;;;;;;5017727;28;20632;-77
2022/05/01 10:15:40;;;;;;;3.50;2.13;;;16.40;99.90;;;;;;5019468;28;20095;-76
2022/05/01 10:18:06;;;;;;;3.05;2.05;;;16.00;99.90;;;;;;5017143;28;20102;-76
2022/05/01 10:20:34;;;;;;;2.85;1.50;;;16.00;99.90;;;;;;5007959;28;20125;-76
2022/05/01 10:23:03;;;;;;;5.03;1.67;;;16.10;99.90;;;;;;4998790;28;20034;-76
2022/05/01 10:25:32;;;;;;;2.60;2.13;;;16.10;99.90;;;;;;5016045;28;20112;-76
2022/05/01 10:28:20;;;;;;;2.50;1.30;;;16.30;99.90;;;;;;5016920;28;20037;-78
2022/05/01 10:34:28;;;;;;;3.10;2.05;;;16.00;99.90;;;;;;4978411;28;20057;-77
2022/05/01 10:37:32;;;;;;;5.47;3.25;;;15.20;99.90;;;;;;5013761;28;20040;-76
2022/05/01 10:40:00;;;;;;;3.60;3.00;;;14.70;99.90;;;;;;5015967;28;20048;-77
2022/05/01 10:42:38;;;;;;;3.30;1.90;;;14.40;99.90;;;;;;5014899;28;21893;-77
2022/05/01 10:45:25;;;;;;;3.05;2.10;;;14.70;99.90;;;;;;5014622;28;20033;-77
2022/05/01 10:47:55;;;;;;;2.75;1.40;;;15.20;99.90;;;;;;5003459;28;20048;-78
2022/05/01 10:50:25;;;;;;;2.22;1.13;;;14.90;99.90;;;;;;5014177;28;20045;-78
2022/05/01 10:53:01;;;;;;;;;;;15.40;99.90;;;;;;5014438;28;20049;-78
2022/05/01 10:55:26;;;;;;;1.75;1.08;;;15.80;99.90;;;;;;5007604;28;19987;-79
2022/05/01 10:58:18;;;;;;;3.35;1.50;;;15.30;99.90;;;;;;5015248;28;20534;-76
2022/05/01 11:00:51;;;;;;;6.15;3.20;;;15.10;99.90;;;;;;5015016;28;20040;-76
2022/05/01 11:03:28;;;;;;;3.00;1.92;;;15.00;99.90;;;;;;5015444;28;20243;-78
2022/05/01 11:06:14;;;;;;;2.60;1.70;;;15.30;99.90;;;;;;5015588;28;20033;-76
2022/05/01 11:08:40;;;;;;;2.78;1.10;;;15.80;99.90;;;;;;5015306;28;20026;-76
2022/05/01 11:11:11;;;;;;;1.73;0.90;;;16.50;99.90;;;;;;5014493;28;20040;-76
2022/05/01 11:13:41;;;;;;;2.53;1.10;;;17.30;99.90;;;;;;5010161;28;20061;-76
2022/05/01 11:16:09;;;;;;;;;;;17.40;99.90;;;;;;5015017;28;20126;-76
2022/05/01 11:18:41;;;;;;;2.25;0.90;;;17.20;99.90;;;;;;5007083;28;20062;-77
2022/05/01 11:21:22;;;;;;;2.10;0.90;;;17.00;99.90;;;;;;5013570;28;20033;-77
2022/05/01 11:24:02;;;;;;;1.55;0.70;;;17.10;99.90;;;;;;5013711;28;20034;-76
2022/05/01 11:26:28;;;;;;;1.98;1.00;;;17.60;99.90;;;;;;5014955;28;20030;-78
2022/05/01 11:28:55;;;;;;;2.22;0.90;;;18.20;99.90;;;;;;5006717;28;20490;-77
2022/05/01 11:31:36;;;;;;;1.77;0.63;;;17.90;99.90;;;;;;5012402;28;20473;-78
2022/05/01 11:34:18;;;;;;;2.72;1.67;;;17.70;99.90;;;;;;5014477;28;20454;-78
2022/05/01 11:36:53;;;;;;;2.30;1.00;;;17.30;99.90;;;;;;5016127;28;20237;-77
2022/05/01 11:39:42;;;;;;;2.20;1.48;;;17.20;99.90;;;;;;5013713;28;20029;-78
2022/05/01 11:42:32;;;;;;;1.90;1.00;;;17.00;99.90;;;;;;4995458;28;20041;-77
2022/05/01 11:45:00;;;;;;;1.40;0.70;;;17.60;99.90;;;;;;5014448;28;20037;-77
2022/05/01 11:47:31;;;;;;;2.42;0.80;;;17.90;99.90;;;;;;5007489;28;20429;-77
2022/05/01 11:49:57;;;;;;;2.55;1.35;;;17.80;99.90;;;;;;5008611;28;20042;-78
2022/05/01 11:52:24;;;;;;;2.05;1.02;;;17.00;99.90;;;;;;5013008;28;20033;-77
2022/05/01 11:54:53;;;;;;;2.90;1.25;;;16.70;99.90;;;;;;5014250;28;21798;-78
2022/05/01 12:03:14;;;;;;;1.45;0.60;;;16.80;99.90;;;;;;4999112;28;20065;-78
2022/05/01 12:05:46;;;;;;;2.33;0.90;;;16.90;99.90;;;;;;5014866;28;20041;-77
2022/05/01 12:08:19;;;;;;;1.88;0.63;;;16.40;99.90;;;;;;5016392;28;20036;-78
2022/05/01 12:10:45;;;;;;;1.50;0.75;;;16.50;99.90;;;;;;5015333;28;20064;-77
2022/05/01 12:13:21;;;;;;;2.00;0.50;;;16.70;99.90;;;;;;5016808;28;20018;-78
2022/05/01 12:15:47;;;;;;;1.73;0.80;;;17.10;99.90;;;;;;5016893;28;20030;-77
2022/05/01 12:18:14;;;;;;;1.92;0.80;;;17.00;99.90;;;;;;5017229;28;20032;-78
2022/05/01 12:20:39;;;;;;;2.83;0.90;;;16.80;99.90;;;;;;5020190;28;20030;-78
2022/05/01 12:23:19;;;;;;;2.15;1.30;;;16.50;99.90;;;;;;5016312;28;20505;-77
2022/05/01 12:25:49;;;;;;;3.38;1.80;;;16.60;99.90;;;;;;5017135;28;20243;-81
2022/05/01 12:28:16;;;;;;;3.75;2.85;;;15.70;99.90;;;;;;5016952;28;20025;-80
2022/05/01 12:30:42;;;;;;;2.15;1.10;;;15.80;99.90;;;;;;5016434;28;20045;-80
2022/05/01 12:33:26;;;;;;;3.05;1.58;;;16.50;99.90;;;;;;5020347;28;20037;-80
2022/05/01 12:35:57;;;;;;;2.83;0.93;;;16.50;99.90;;;;;;5020166;28;20033;-79
2022/05/01 12:38:26;;;;;;;3.95;1.88;;;16.50;99.90;;;;;;5020431;28;20033;-77
2022/05/01 12:43:51;;;;;;;2.53;0.98;;;16.50;99.90;;;;;;5020388;28;20164;-77
2022/05/01 12:46:30;;;;;;;1.52;0.52;;;16.70;99.90;;;;;;5020867;28;20057;-77
2022/05/01 12:48:58;;;;;;;3.00;0.90;;;16.70;99.90;;;;;;5020306;28;20025;-78
2022/05/01 12:51:35;;;;;;;2.75;0.93;;;17.20;99.90;;;;;;5015266;28;20409;-78
2022/05/01 12:54:17;;;;;;;3.17;1.00;;;17.20;99.90;;;;;;5018647;28;20036;-78
2022/05/01 12:56:43;;;;;;;2.30;0.98;;;17.00;99.90;;;;;;5019747;28;20665;-77
2022/05/01 12:59:30;;;;;;;2.10;1.05;;;16.80;99.90;;;;;;5019918;28;20027;-79
2022/05/01 13:01:57;;;;;;;3.80;1.52;;;16.70;99.90;;;;;;5019453;28;20025;-78
2022/05/01 13:04:28;;;;;;;1.88;0.90;;;16.30;99.90;;;;;;5019995;28;20398;-77
2022/05/01 13:06:54;;;;;;;1.88;0.70;;;16.50;99.90;;;;;;5017159;28;20038;-77
2022/05/01 13:09:20;;;;;;;2.75;1.00;;;17.10;99.90;;;;;;5011858;28;20033;-76
2022/05/01 13:12:02;;;;;;;1.80;0.80;;;17.50;99.90;;;;;;5020151;28;20111;-77
2022/05/01 13:14:35;;;;;;;4.97;1.80;;;17.50;99.90;;;;;;5020062;28;20030;-78
2022/05/01 13:17:12;;;;;;;3.15;1.33;;;16.90;99.90;;;;;;5018835;28;20064;-78
2022/05/01 13:19:40;;;;;;;4.88;3.92;;;16.70;99.90;;;;;;5019923;28;20385;-78
2022/05/01 13:22:07;;;;;;;5.43;2.97;;;15.80;99.90;;;;;;5018532;28;20033;-77
2022/05/01 13:24:35;;;;;;;5.45;4.07;;;16.10;99.90;;;;;;5016795;28;20029;-77
2022/05/01 13:27:06;;;;;;;4.28;2.70;;;15.90;99.90;;;;;;5018230;28;20060;-78
2022/05/01 13:29:33;;;;;;;3.28;2.13;;;16.10;99.90;;;;;;5033588;28;20473;-78
2022/05/01 13:32:05;;;;;;;3.00;1.27;;;16.70;99.90;;;;;;5017000;28;20077;-79